createdAt,value
2023-11-01T00:00:39.473Z,5.00
2023-11-01T00:03:40.204Z,5.00
2023-11-01T00:06:30.379Z,3.80
2023-11-01T00:09:14.739Z,7.00
2023-11-01T00:12:06.540Z,5.50
2023-11-01T00:15:02.865Z,10.30
2023-11-01T00:17:48.028Z,5.20
2023-11-01T00:20:46.602Z,5.20
2023-11-01T00:23:25.852Z,4.30
2023-11-01T00:26:37.403Z,4.00
2023-11-01T00:29:30.868Z,4.50
2023-11-01T00:32:37.571Z,3.70
2023-11-01T00:35:24.532Z,4.00
2023-11-01T00:38:37.280Z,4.50
2023-11-01T00:41:19.844Z,6.00
2023-11-01T00:44:30.264Z,4.90
2023-11-01T00:47:21.374Z,4.20
2023-11-01T00:50:07.916Z,4.80
2023-11-01T00:53:18.686Z,6.80
2023-11-01T00:56:03.407Z,4.40
2023-11-01T00:58:52.944Z,5.40
2023-11-01T01:01:41.924Z,5.40
2023-11-01T01:04:23.931Z,3.70
2023-11-01T01:07:35.097Z,3.30
2023-11-01T01:10:38.984Z,4.60
2023-11-01T01:13:23.458Z,3.50
2023-11-01T01:16:04.749Z,3.90
2023-11-01T01:18:49.700Z,3.50
2023-11-01T01:21:30.906Z,3.30
2023-11-01T01:24:30.120Z,4.30
2023-11-01T01:30:19.734Z,3.30
2023-11-01T01:33:17.152Z,4.50
2023-11-01T01:36:09.382Z,5.60
2023-11-01T01:39:06.057Z,3.30
2023-11-01T01:42:03.788Z,3.00
2023-11-01T01:44:58.980Z,4.60
2023-11-01T01:47:35.891Z,3.70
2023-11-01T01:50:56.282Z,4.00
2023-11-01T01:54:01.206Z,2.90
2023-11-01T01:56:54.769Z,5.90
2023-11-01T01:59:36.649Z,3.70
2023-11-01T02:02:13.326Z,4.00
2023-11-01T02:04:52.646Z,4.50
2023-11-01T02:07:28.397Z,5.00
2023-11-01T02:10:17.702Z,3.40
2023-11-01T02:13:11.781Z,4.30
2023-11-01T02:15:50.742Z,3.70
2023-11-01T02:18:29.043Z,4.70
2023-11-01T02:21:24.848Z,4.30
2023-11-01T02:24:14.941Z,3.40
2023-11-01T02:26:54.371Z,5.30
2023-11-01T02:29:52.945Z,4.10
2023-11-01T02:32:34.600Z,3.60
2023-11-01T02:35:34.129Z,3.20
2023-11-01T02:38:16.803Z,3.90
2023-11-01T02:41:34.008Z,5.10
2023-11-01T02:44:29.243Z,5.50
2023-11-01T02:47:13.289Z,3.50
2023-11-01T02:49:56.270Z,3.10
2023-11-01T02:53:00.184Z,2.70
2023-11-01T02:55:38.945Z,3.10
2023-11-01T02:58:28.302Z,3.60
2023-11-01T03:01:02.077Z,3.20
2023-11-01T03:03:35.058Z,4.50
2023-11-01T03:06:18.847Z,3.40
2023-11-01T03:09:12.786Z,3.90
2023-11-01T03:11:55.946Z,7.10
2023-11-01T03:14:34.386Z,4.80
2023-11-01T03:17:19.016Z,4.30
2023-11-01T03:20:05.849Z,6.30
2023-11-01T03:22:54.847Z,4.60
2023-11-01T03:25:39.134Z,4.20
2023-11-01T03:28:40.037Z,5.00
2023-11-01T03:31:27.564Z,3.70
2023-11-01T03:34:29.938Z,3.90
2023-11-01T03:37:22.010Z,3.70
2023-11-01T03:40:14.248Z,3.90
2023-11-01T03:45:58.470Z,3.20
2023-11-01T03:49:09.757Z,3.20
2023-11-01T03:51:50.937Z,4.50
2023-11-01T03:54:38.450Z,5.60
2023-11-01T03:57:31.872Z,6.10
2023-11-01T04:00:25.417Z,6.90
2023-11-01T04:03:05.460Z,5.20
2023-11-01T04:09:00.338Z,5.50
2023-11-01T04:11:51.440Z,3.30
2023-11-01T04:14:46.063Z,4.70
2023-11-01T04:18:20.330Z,4.80
2023-11-01T04:20:58.373Z,2.40
2023-11-01T04:23:40.410Z,2.30
2023-11-01T04:26:26.412Z,2.30
2023-11-01T04:29:01.306Z,2.60
2023-11-01T04:31:44.982Z,1.50
2023-11-01T04:34:34.241Z,4.70
2023-11-01T04:37:17.073Z,1.80
2023-11-01T04:40:35.548Z,3.60
2023-11-01T04:43:13.615Z,2.40
2023-11-01T04:46:02.644Z,2.20
2023-11-01T04:48:52.350Z,3.20
2023-11-01T04:51:38.478Z,3.80
2023-11-01T04:54:35.074Z,2.40
2023-11-01T04:57:17.380Z,2.60
2023-11-01T04:59:59.225Z,1.80
2023-11-01T05:02:46.693Z,3.20
2023-11-01T05:05:22.161Z,4.60
2023-11-01T05:08:12.752Z,4.10
2023-11-01T05:10:50.655Z,3.60
2023-11-01T05:13:40.848Z,2.90
2023-11-01T05:16:18.201Z,3.30
2023-11-01T05:19:10.951Z,3.20
2023-11-01T05:21:51.321Z,3.50
2023-11-01T05:24:35.681Z,2.40
2023-11-01T05:27:26.461Z,2.40
2023-11-01T05:31:03.815Z,3.20
2023-11-01T05:34:41.651Z,4.10
2023-11-01T05:37:53.468Z,6.60
2023-11-01T05:41:16.033Z,4.10
2023-11-01T05:44:02.515Z,8.10
2023-11-01T05:46:49.985Z,4.70
2023-11-01T05:49:59.581Z,8.10
2023-11-01T05:52:43.463Z,5.30
2023-11-01T05:55:26.454Z,6.50
2023-11-01T05:58:24.579Z,3.60
2023-11-01T06:01:29.918Z,5.20
2023-11-01T06:04:13.186Z,6.70
2023-11-01T06:07:00.694Z,2.80
2023-11-01T06:09:38.487Z,2.30
2023-11-01T06:12:16.949Z,1.90
2023-11-01T06:14:57.171Z,3.30
2023-11-01T06:17:54.329Z,8.00
2023-11-01T06:20:41.784Z,2.70
2023-11-01T06:23:22.578Z,5.60
2023-11-01T06:26:30.138Z,3.40
2023-11-01T06:29:46.285Z,4.80
2023-11-01T06:32:32.722Z,5.10
2023-11-01T06:35:15.114Z,8.60
2023-11-01T06:37:48.007Z,7.60
2023-11-01T06:40:27.942Z,4.70
2023-11-01T06:43:03.796Z,4.20
2023-11-01T06:45:43.538Z,3.00
2023-11-01T06:48:27.207Z,5.00
2023-11-01T06:51:16.311Z,4.00
2023-11-01T06:53:53.208Z,3.00
2023-11-01T06:56:52.478Z,3.30
2023-11-01T06:59:44.748Z,4.00
2023-11-01T07:02:20.523Z,7.40
2023-11-01T07:05:25.061Z,13.90
2023-11-01T07:08:20.719Z,8.90
2023-11-01T07:10:59.602Z,11.60
2023-11-01T07:13:56.315Z,10.40
2023-11-01T07:17:01.636Z,6.40
2023-11-01T07:19:39.070Z,7.50
2023-11-01T07:22:31.130Z,10.00
2023-11-01T07:25:06.169Z,10.50
2023-11-01T07:27:41.651Z,12.90
2023-11-01T07:30:28.667Z,13.50
2023-11-01T07:33:17.705Z,12.30
2023-11-01T07:36:05.934Z,17.60
2023-11-01T07:38:42.467Z,11.60
2023-11-01T07:41:35.000Z,14.50
2023-11-01T07:44:15.165Z,16.70
2023-11-01T07:46:49.385Z,8.80
2023-11-01T07:49:27.953Z,7.20
2023-11-01T07:52:16.421Z,7.40
2023-11-01T07:54:50.960Z,10.10
2023-11-01T07:57:25.972Z,8.60
2023-11-01T08:00:09.814Z,6.90
2023-11-01T08:03:01.547Z,9.60
2023-11-01T08:05:45.768Z,7.40
2023-11-01T08:08:22.045Z,10.50
2023-11-01T08:11:18.808Z,7.80
2023-11-01T08:13:52.905Z,8.40
2023-11-01T08:16:30.647Z,11.80
2023-11-01T08:19:12.421Z,9.70
2023-11-01T08:21:55.498Z,8.30
2023-11-01T08:24:39.134Z,6.50
2023-11-01T08:27:16.142Z,10.90
2023-11-01T08:29:50.287Z,9.40
2023-11-01T08:32:21.655Z,6.40
2023-11-01T08:35:03.000Z,5.00
2023-11-01T08:37:43.960Z,5.80
2023-11-01T08:43:07.774Z,7.80
2023-11-01T08:45:43.689Z,3.80
2023-11-01T08:48:47.832Z,6.10
2023-11-01T08:51:31.842Z,6.20
2023-11-01T08:54:11.573Z,5.90
2023-11-01T08:56:57.029Z,8.30
2023-11-01T08:59:40.164Z,6.70
2023-11-01T09:02:19.722Z,5.80
2023-11-01T09:05:12.028Z,9.10
2023-11-01T09:07:50.902Z,11.10
2023-11-01T09:10:34.745Z,9.00
2023-11-01T09:13:26.397Z,9.40
2023-11-01T09:16:11.127Z,9.00
2023-11-01T09:18:46.105Z,9.60
2023-11-01T09:21:24.929Z,8.30
2023-11-01T09:24:18.473Z,7.90
2023-11-01T09:26:56.455Z,8.60
2023-11-01T09:29:42.432Z,6.40
2023-11-01T09:32:18.961Z,7.20
2023-11-01T09:35:46.548Z,5.70
2023-11-01T09:38:36.580Z,10.70
2023-11-01T09:42:36.821Z,9.40
2023-11-01T09:50:59.742Z,19.10
2023-11-01T09:54:03.831Z,22.30
2023-11-01T09:56:44.654Z,17.90
2023-11-01T09:59:14.620Z,11.00
2023-11-01T10:05:08.372Z,11.80
2023-11-01T10:07:43.359Z,11.80
2023-11-01T10:10:30.786Z,20.80
2023-11-01T10:13:11.875Z,13.60
2023-11-01T10:15:54.732Z,12.50
2023-11-01T10:18:33.144Z,12.40
2023-11-01T10:21:09.417Z,13.30
2023-11-01T10:23:52.323Z,13.80
2023-11-01T10:26:32.505Z,15.40
2023-11-01T10:29:18.310Z,12.00
2023-11-01T10:32:04.388Z,11.70
2023-11-01T10:34:50.580Z,11.00
2023-11-01T10:37:33.914Z,12.90
2023-11-01T10:40:16.287Z,14.60
2023-11-01T10:43:13.193Z,14.50
2023-11-01T10:46:02.790Z,13.00
2023-11-01T10:48:59.611Z,22.60
2023-11-01T10:51:44.245Z,16.90
2023-11-01T10:54:25.591Z,17.20
2023-11-01T10:57:24.893Z,14.50
2023-11-01T11:00:09.619Z,22.00
2023-11-01T11:03:04.919Z,13.20
2023-11-01T11:05:58.890Z,13.20
2023-11-01T11:09:25.452Z,18.00
2023-11-01T11:12:28.918Z,10.30
2023-11-01T11:15:20.927Z,12.00
2023-11-01T11:18:27.666Z,12.90
2023-11-01T11:21:07.909Z,11.60
2023-11-01T11:24:59.460Z,14.30
2023-11-01T11:31:19.920Z,11.30
2023-11-01T11:34:20.040Z,8.10
2023-11-01T11:37:32.379Z,14.90
2023-11-01T11:40:15.429Z,17.00
2023-11-01T11:46:18.826Z,12.60
2023-11-01T11:49:01.194Z,10.90
2023-11-01T11:51:40.115Z,10.30
2023-11-01T11:54:38.513Z,17.80
2023-11-01T11:57:17.889Z,8.20
2023-11-01T12:00:25.261Z,6.00
2023-11-01T12:03:50.004Z,9.70
2023-11-01T12:07:09.417Z,10.50
2023-11-01T12:10:04.329Z,7.10
2023-11-01T12:13:36.966Z,7.10
2023-11-01T12:16:46.990Z,8.30
2023-11-01T12:19:46.077Z,7.40
2023-11-01T12:22:58.686Z,12.50
2023-11-01T12:25:31.474Z,9.90
2023-11-01T12:28:31.560Z,7.00
2023-11-01T12:31:31.999Z,17.00
2023-11-01T12:34:31.928Z,14.20
2023-11-01T12:37:25.527Z,12.70
2023-11-01T12:43:28.417Z,9.30
2023-11-01T12:46:27.800Z,10.00
2023-11-01T12:49:16.762Z,15.20
2023-11-01T12:52:15.859Z,12.50
2023-11-01T12:55:17.484Z,10.30
2023-11-01T12:58:09.259Z,26.30
2023-11-01T13:00:57.936Z,54.90
2023-11-01T13:06:50.439Z,80.70
2023-11-01T13:09:36.187Z,48.10
2023-11-01T13:12:10.311Z,21.70
2023-11-01T13:14:46.309Z,11.80
2023-11-01T13:17:16.798Z,9.60
2023-11-01T13:20:00.969Z,12.00
2023-11-01T13:23:10.538Z,10.30
2023-11-01T13:25:55.169Z,6.10
2023-11-01T13:28:34.653Z,6.80
2023-11-01T13:31:11.641Z,8.70
2023-11-01T13:33:42.475Z,25.20
2023-11-01T13:36:22.937Z,25.90
2023-11-01T13:38:59.310Z,29.90
2023-11-01T13:41:52.263Z,24.00
2023-11-01T13:44:33.193Z,8.50
2023-11-01T13:47:13.136Z,8.80
2023-11-01T13:49:48.449Z,7.50
2023-11-01T13:52:58.922Z,5.80
2023-11-01T13:55:40.314Z,8.20
2023-11-01T13:58:32.025Z,30.80
2023-11-01T14:01:13.390Z,11.60
2023-11-01T14:03:59.702Z,9.40
2023-11-01T14:06:32.724Z,7.30
2023-11-01T14:09:32.816Z,7.10
2023-11-01T14:12:26.606Z,8.70
2023-11-01T14:15:45.524Z,9.30
2023-11-01T14:18:20.907Z,11.80
2023-11-01T14:20:57.364Z,43.70
2023-11-01T14:23:50.361Z,60.60
2023-11-01T14:26:39.294Z,23.80
2023-11-01T14:29:17.436Z,27.30
2023-11-01T14:31:55.355Z,14.10
2023-11-01T14:34:37.676Z,9.10
2023-11-01T14:37:13.384Z,18.60
2023-11-01T14:39:56.531Z,11.80
2023-11-01T14:42:33.190Z,8.70
2023-11-01T14:45:08.028Z,17.20
2023-11-01T14:47:40.507Z,18.90
2023-11-01T14:50:12.743Z,21.00
2023-11-01T14:52:43.963Z,24.40
2023-11-01T14:55:17.706Z,19.80
2023-11-01T14:57:50.462Z,30.30
2023-11-01T15:00:36.998Z,28.50
2023-11-01T15:03:20.521Z,21.40
2023-11-01T15:05:59.748Z,24.30
2023-11-01T15:08:34.249Z,25.60
2023-11-01T15:11:15.931Z,27.40
2023-11-01T15:14:00.296Z,29.40
2023-11-01T15:16:39.052Z,29.50
2023-11-01T15:19:17.253Z,29.70
2023-11-01T15:22:08.123Z,33.00
2023-11-01T15:25:02.776Z,33.10
2023-11-01T15:27:46.759Z,35.50
2023-11-01T15:30:46.335Z,45.60
2023-11-01T15:33:52.828Z,41.00
2023-11-01T15:36:37.821Z,39.80
2023-11-01T15:39:35.838Z,43.20
2023-11-01T15:42:22.250Z,43.30
2023-11-01T15:45:05.730Z,42.20
2023-11-01T15:47:44.450Z,40.30
2023-11-01T15:50:21.898Z,34.40
2023-11-01T15:53:17.102Z,33.60
2023-11-01T15:55:58.025Z,33.30
2023-11-01T15:58:46.644Z,30.20
2023-11-01T16:01:29.723Z,36.00
2023-11-01T16:04:11.461Z,32.40
2023-11-01T16:06:57.138Z,42.40
2023-11-01T16:09:30.069Z,37.70
2023-11-01T16:12:06.532Z,42.20
2023-11-01T16:14:41.301Z,39.60
2023-11-01T16:17:12.732Z,35.00
2023-11-01T16:19:48.172Z,31.80
2023-11-01T16:22:27.513Z,36.10
2023-11-01T16:25:05.260Z,35.30
2023-11-01T16:27:36.441Z,38.90
2023-11-01T16:30:09.891Z,37.40
2023-11-01T16:32:44.312Z,32.30
2023-11-01T16:37:55.395Z,30.90
2023-11-01T16:40:28.726Z,35.60
2023-11-01T16:43:03.510Z,35.30
2023-11-01T16:45:40.920Z,44.40
2023-11-01T16:48:21.343Z,47.90
2023-11-01T16:50:55.507Z,50.20
2023-11-01T16:53:32.764Z,51.30
2023-11-01T16:56:23.354Z,47.60
2023-11-01T16:58:57.982Z,166.80
2023-11-01T17:01:42.481Z,60.50
2023-11-01T17:04:14.424Z,53.60
2023-11-01T17:06:47.440Z,52.40
2023-11-01T17:09:17.679Z,40.50
2023-11-01T17:11:50.821Z,34.20
2023-11-01T17:14:25.256Z,30.40
2023-11-01T17:17:06.860Z,32.30
2023-11-01T17:19:56.523Z,31.00
2023-11-01T17:22:47.608Z,38.00
2023-11-01T17:25:45.961Z,47.30
2023-11-01T17:29:22.128Z,45.30
2023-11-01T17:32:24.045Z,43.10
2023-11-01T17:35:09.742Z,49.20
2023-11-01T17:37:56.628Z,40.50
2023-11-01T17:40:33.521Z,46.30
2023-11-01T17:43:16.594Z,43.30
2023-11-01T17:45:51.005Z,51.10
2023-11-01T17:48:42.132Z,49.80
2023-11-01T17:51:18.654Z,56.50
2023-11-01T17:53:56.656Z,74.00
2023-11-01T17:56:43.130Z,86.90
2023-11-01T17:59:37.840Z,65.10
2023-11-01T18:02:32.702Z,62.00
2023-11-01T18:06:01.986Z,55.40
2023-11-01T18:08:55.245Z,45.50
2023-11-01T18:11:47.752Z,46.70
2023-11-01T18:15:03.645Z,43.30
2023-11-01T18:18:10.220Z,43.30
2023-11-01T18:21:42.185Z,45.00
2023-11-01T18:25:19.351Z,34.80
2023-11-01T18:28:42.556Z,39.00
2023-11-01T18:31:46.432Z,33.70
2023-11-01T18:34:59.203Z,29.80
2023-11-01T18:41:05.516Z,27.70
2023-11-01T18:44:03.931Z,26.60
2023-11-01T18:47:35.459Z,22.20
2023-11-01T18:50:42.179Z,27.00
2023-11-01T18:53:44.874Z,23.00
2023-11-01T18:56:59.389Z,23.60
2023-11-01T19:03:18.435Z,29.30
2023-11-01T19:06:01.091Z,27.80
2023-11-01T19:08:54.894Z,29.70
2023-11-01T19:11:48.266Z,25.60
2023-11-01T19:14:54.296Z,25.60
2023-11-01T19:17:41.859Z,23.30
2023-11-01T19:23:42.307Z,19.10
2023-11-01T19:27:12.566Z,19.30
2023-11-01T19:29:59.729Z,22.50
2023-11-01T19:33:22.950Z,21.30
2023-11-01T19:36:18.717Z,21.70
2023-11-01T19:39:28.102Z,24.30
2023-11-01T19:42:10.519Z,21.20
2023-11-01T19:45:09.189Z,23.40
2023-11-01T19:51:26.400Z,20.50
2023-11-01T19:54:28.509Z,17.40
2023-11-01T19:57:15.377Z,26.60
2023-11-01T20:00:50.517Z,22.00
2023-11-01T20:03:33.505Z,19.80
2023-11-01T20:06:12.286Z,20.40
2023-11-01T20:09:09.171Z,30.80
2023-11-01T20:12:00.529Z,20.30
2023-11-01T20:14:57.878Z,18.90
2023-11-01T20:18:06.332Z,21.10
2023-11-01T20:21:06.098Z,21.20
2023-11-01T20:23:58.024Z,25.00
2023-11-01T20:26:37.946Z,19.40
2023-11-01T20:29:38.965Z,22.30
2023-11-01T20:32:27.408Z,19.80
2023-11-01T20:35:10.271Z,20.60
2023-11-01T20:38:01.280Z,23.70
2023-11-01T20:40:48.054Z,27.20
2023-11-01T20:43:33.104Z,35.70
2023-11-01T20:46:43.807Z,28.90
2023-11-01T20:49:44.426Z,34.00
2023-11-01T20:52:44.217Z,27.40
2023-11-01T20:55:37.055Z,18.60
2023-11-01T20:58:52.446Z,19.50
2023-11-01T21:01:42.338Z,26.60
2023-11-01T21:04:24.680Z,22.70
2023-11-01T21:07:08.983Z,21.10
2023-11-01T21:09:45.197Z,20.80
2023-11-01T21:12:20.487Z,20.60
2023-11-01T21:14:56.136Z,21.70
2023-11-01T21:17:29.506Z,20.40
2023-11-01T21:25:33.454Z,72.20
2023-11-01T21:28:18.974Z,77.30
2023-11-01T21:31:04.385Z,103.90
2023-11-01T21:33:40.568Z,65.90
2023-11-01T21:36:43.330Z,28.20
2023-11-01T21:39:32.324Z,39.80
2023-11-01T21:42:11.118Z,65.90
2023-11-01T21:44:55.649Z,48.70
2023-11-01T21:47:42.430Z,40.30
2023-11-01T21:50:32.264Z,27.00
2023-11-01T21:53:47.338Z,24.20
2023-11-01T21:56:37.198Z,33.10
2023-11-01T21:59:30.897Z,27.90
2023-11-01T22:03:13.111Z,27.60
2023-11-01T22:06:13.494Z,26.40
2023-11-01T22:09:07.488Z,26.40
2023-11-01T22:11:55.823Z,30.40
2023-11-01T22:14:41.451Z,30.60
2023-11-01T22:17:59.379Z,26.70
2023-11-01T22:20:43.140Z,36.50
2023-11-01T22:23:18.280Z,39.50
2023-11-01T22:26:10.656Z,30.90
2023-11-01T22:28:44.674Z,35.70
2023-11-01T22:32:33.485Z,25.50
2023-11-01T22:35:42.084Z,27.00
2023-11-01T22:38:34.254Z,22.60
2023-11-01T22:41:15.997Z,20.70
2023-11-01T22:44:08.020Z,18.80
2023-11-01T22:46:45.131Z,24.00
2023-11-01T22:49:31.282Z,20.10
2023-11-01T22:52:02.180Z,20.50
2023-11-01T22:57:26.717Z,22.40
2023-11-01T23:00:15.216Z,20.80
2023-11-01T23:02:56.032Z,19.60
2023-11-01T23:08:40.492Z,22.30
2023-11-01T23:11:17.637Z,18.80
2023-11-01T23:14:04.165Z,20.30
2023-11-01T23:16:54.807Z,20.40
2023-11-01T23:19:37.343Z,21.90
2023-11-01T23:22:21.538Z,20.60
2023-11-01T23:25:00.276Z,16.10
2023-11-01T23:27:43.365Z,16.70
2023-11-01T23:31:08.401Z,18.80
2023-11-01T23:33:59.398Z,20.40
2023-11-01T23:37:05.693Z,20.10
2023-11-01T23:39:49.174Z,20.60
2023-11-01T23:42:29.578Z,16.60
2023-11-01T23:45:41.944Z,19.20
2023-11-01T23:48:21.199Z,25.00
2023-11-01T23:51:02.999Z,51.80
2023-11-01T23:53:41.657Z,39.90
2023-11-01T23:56:30.611Z,34.20
2023-11-01T23:59:07.900Z,27.50
